createdAt,value
2022-08-23T00:01:23.941Z,45.50
2022-08-23T00:03:26.072Z,45.20
2022-08-23T00:05:27.787Z,45.20
2022-08-23T00:07:29.810Z,45.20
2022-08-23T00:09:31.592Z,45.30
2022-08-23T00:11:35.111Z,45.40
2022-08-23T00:13:47.306Z,45.60
2022-08-23T00:15:50.763Z,45.40
2022-08-23T00:17:52.522Z,45.30
2022-08-23T00:19:54.399Z,45.30
2022-08-23T00:21:56.665Z,45.40
2022-08-23T00:23:58.721Z,45.50
2022-08-23T00:26:03.486Z,45.60
2022-08-23T00:28:05.221Z,45.80
2022-08-23T00:30:17.681Z,45.70
2022-08-23T00:32:21.667Z,45.70
2022-08-23T00:34:23.462Z,46.00
2022-08-23T00:36:25.131Z,46.10
2022-08-23T00:38:34.302Z,45.80
2022-08-23T00:40:36.591Z,45.80
2022-08-23T00:43:01.247Z,45.90
2022-08-23T00:45:23.342Z,46.00
2022-08-23T00:47:43.058Z,45.90
2022-08-23T00:49:50.092Z,46.10
2022-08-23T00:51:57.925Z,45.90
2022-08-23T00:54:01.586Z,46.10
2022-08-23T00:56:05.662Z,46.00
2022-08-23T00:58:08.056Z,46.10
2022-08-23T01:00:10.363Z,46.40
2022-08-23T01:02:12.617Z,46.30
2022-08-23T01:04:16.687Z,46.50
2022-08-23T01:06:26.733Z,46.60
2022-08-23T01:08:29.575Z,46.60
2022-08-23T01:10:35.515Z,46.70
2022-08-23T01:12:41.268Z,46.60
2022-08-23T01:14:51.452Z,46.80
2022-08-23T01:16:55.967Z,46.70
2022-08-23T01:18:57.723Z,46.60
2022-08-23T01:21:16.305Z,46.80
2022-08-23T01:23:41.135Z,46.90
2022-08-23T01:25:42.957Z,46.80
2022-08-23T01:27:45.292Z,47.20
2022-08-23T01:29:50.541Z,46.90
2022-08-23T01:31:53.285Z,47.10
2022-08-23T01:33:58.117Z,46.90
2022-08-23T01:36:00.906Z,47.00
2022-08-23T01:38:06.635Z,47.20
2022-08-23T01:40:09.129Z,46.90
2022-08-23T01:42:11.201Z,47.10
2022-08-23T01:44:13.632Z,47.10
2022-08-23T01:46:18.073Z,47.20
2022-08-23T01:48:20.278Z,47.70
2022-08-23T01:50:22.090Z,47.10
2022-08-23T01:52:23.773Z,47.20
2022-08-23T01:54:25.571Z,47.40
2022-08-23T01:56:39.037Z,47.70
2022-08-23T01:58:47.013Z,47.70
2022-08-23T02:00:49.223Z,47.70
2022-08-23T02:02:51.190Z,47.60
2022-08-23T02:04:53.047Z,48.00
2022-08-23T02:06:55.156Z,48.00
2022-08-23T02:09:03.565Z,48.00
2022-08-23T02:11:13.658Z,48.00
2022-08-23T02:13:15.842Z,47.70
2022-08-23T02:15:17.814Z,48.00
2022-08-23T02:17:22.363Z,48.00
2022-08-23T02:19:26.873Z,47.90
2022-08-23T02:21:31.342Z,47.90
2022-08-23T02:23:33.311Z,48.20
2022-08-23T02:25:34.997Z,48.00
2022-08-23T02:27:36.724Z,48.00
2022-08-23T02:29:39.732Z,48.10
2022-08-23T02:31:44.654Z,48.40
2022-08-23T02:33:46.359Z,48.40
2022-08-23T02:35:49.957Z,48.40
2022-08-23T02:37:52.981Z,48.40
2022-08-23T02:39:55.632Z,48.40
2022-08-23T02:41:57.444Z,48.70
2022-08-23T02:43:59.266Z,48.20
2022-08-23T02:46:04.059Z,48.20
2022-08-23T02:48:08.017Z,48.20
2022-08-23T02:50:18.068Z,48.40
2022-08-23T02:52:19.769Z,48.60
2022-08-23T02:54:21.649Z,48.80
2022-08-23T02:56:23.446Z,48.80
2022-08-23T02:58:26.211Z,48.70
2022-08-23T03:00:28.901Z,48.50
2022-08-23T03:02:31.450Z,48.90
2022-08-23T03:04:33.501Z,48.70
2022-08-23T03:06:36.332Z,48.70
2022-08-23T03:08:38.049Z,48.60
2022-08-23T03:10:43.806Z,48.50
2022-08-23T03:12:45.480Z,48.90
2022-08-23T03:14:47.387Z,48.60
2022-08-23T03:16:49.274Z,48.70
2022-08-23T03:18:51.044Z,49.00
2022-08-23T03:20:52.756Z,49.10
2022-08-23T03:22:55.114Z,48.80
2022-08-23T03:24:59.467Z,48.90
2022-08-23T03:27:10.450Z,49.00
2022-08-23T03:29:12.978Z,48.90
2022-08-23T03:31:32.199Z,48.70
2022-08-23T03:33:41.710Z,48.60
2022-08-23T03:35:43.847Z,49.00
2022-08-23T03:37:47.332Z,48.80
2022-08-23T03:39:49.858Z,49.00
2022-08-23T03:41:51.583Z,48.90
2022-08-23T03:43:53.719Z,48.80
2022-08-23T03:45:55.636Z,49.20
2022-08-23T03:47:58.055Z,49.10
2022-08-23T03:50:00.817Z,49.30
2022-08-23T03:52:03.296Z,48.90
2022-08-23T03:54:07.063Z,49.10
2022-08-23T03:56:09.582Z,49.50
2022-08-23T03:58:11.650Z,49.40
2022-08-23T04:00:14.656Z,49.10
2022-08-23T04:02:22.687Z,49.10
2022-08-23T04:04:24.385Z,49.60
2022-08-23T04:06:47.575Z,49.30
2022-08-23T04:08:49.365Z,49.20
2022-08-23T04:10:51.080Z,49.10
2022-08-23T04:12:54.726Z,49.10
2022-08-23T04:14:56.625Z,49.10
2022-08-23T04:16:58.684Z,49.50
2022-08-23T04:19:00.724Z,49.40
2022-08-23T04:21:12.357Z,49.60
2022-08-23T04:23:14.419Z,49.50
2022-08-23T04:25:34.532Z,49.40
2022-08-23T04:27:37.929Z,49.30
2022-08-23T04:29:40.047Z,49.80
2022-08-23T04:31:45.091Z,49.70
2022-08-23T04:33:52.467Z,49.40
2022-08-23T04:35:56.562Z,49.40
2022-08-23T04:37:58.416Z,49.30
2022-08-23T04:40:19.698Z,49.90
2022-08-23T04:42:23.149Z,49.50
2022-08-23T04:44:25.964Z,49.40
2022-08-23T04:46:28.483Z,49.60
2022-08-23T04:48:33.408Z,49.70
2022-08-23T04:50:35.224Z,49.40
2022-08-23T04:52:48.522Z,50.10
2022-08-23T04:54:50.199Z,49.70
2022-08-23T04:57:12.335Z,50.00
2022-08-23T04:59:15.311Z,50.10
2022-08-23T05:01:19.456Z,49.80
2022-08-23T05:03:22.594Z,49.80
2022-08-23T05:05:24.859Z,49.90
2022-08-23T05:07:31.904Z,49.70
2022-08-23T05:09:45.734Z,50.20
2022-08-23T05:11:47.998Z,50.40
2022-08-23T05:13:50.126Z,50.00
2022-08-23T05:15:52.643Z,49.90
2022-08-23T05:17:56.192Z,50.30
2022-08-23T05:19:57.944Z,50.30
2022-08-23T05:21:59.770Z,50.20
2022-08-23T05:24:18.631Z,50.40
2022-08-23T05:26:22.254Z,50.10
2022-08-23T05:28:26.088Z,50.20
2022-08-23T05:30:28.103Z,50.10
2022-08-23T05:32:33.327Z,50.60
2022-08-23T05:34:35.506Z,50.60
2022-08-23T05:36:48.900Z,50.80
2022-08-23T05:38:58.738Z,51.10
2022-08-23T05:41:02.169Z,50.60
2022-08-23T05:43:07.785Z,50.50
2022-08-23T05:45:09.707Z,50.60
2022-08-23T05:47:13.228Z,50.80
2022-08-23T05:49:50.442Z,50.80
2022-08-23T05:51:52.475Z,51.00
2022-08-23T05:53:59.256Z,51.00
2022-08-23T05:56:13.092Z,51.20
2022-08-23T05:58:15.480Z,51.30
2022-08-23T06:00:17.455Z,51.60
2022-08-23T06:02:24.413Z,51.60
2022-08-23T06:04:26.116Z,51.70
2022-08-23T06:06:35.042Z,51.50
2022-08-23T06:08:40.132Z,51.20
2022-08-23T06:10:42.661Z,51.10
2022-08-23T06:13:02.312Z,51.10
2022-08-23T06:15:04.154Z,51.40
2022-08-23T06:17:05.924Z,51.30
2022-08-23T06:19:08.844Z,51.50
2022-08-23T06:21:31.346Z,51.60
2022-08-23T06:23:33.191Z,51.30
2022-08-23T06:25:38.510Z,51.20
2022-08-23T06:27:45.296Z,51.40
2022-08-23T06:29:48.192Z,51.40
2022-08-23T06:32:08.227Z,51.20
2022-08-23T06:34:19.938Z,51.40
2022-08-23T06:36:55.684Z,51.40
2022-08-23T06:39:17.885Z,51.20
2022-08-23T06:41:30.120Z,51.10
2022-08-23T06:43:52.094Z,51.00
2022-08-23T06:46:13.676Z,51.00
2022-08-23T06:48:19.038Z,50.90
2022-08-23T06:50:20.930Z,51.00
2022-08-23T06:52:42.392Z,51.10
2022-08-23T06:54:59.734Z,50.90
2022-08-23T06:57:11.088Z,50.90
2022-08-23T06:59:27.113Z,50.90
2022-08-23T07:01:49.309Z,50.90
2022-08-23T07:03:58.022Z,50.90
2022-08-23T07:06:35.926Z,51.00
2022-08-23T07:08:37.693Z,51.00
2022-08-23T07:10:39.411Z,50.90
2022-08-23T07:12:42.534Z,51.10
2022-08-23T07:14:45.026Z,50.80
2022-08-23T07:16:49.889Z,50.90
2022-08-23T07:18:52.941Z,50.80
2022-08-23T07:20:58.752Z,50.80
2022-08-23T07:23:01.396Z,50.80
2022-08-23T07:25:03.968Z,50.80
2022-08-23T07:27:07.055Z,50.70
2022-08-23T07:29:11.387Z,50.50
2022-08-23T07:31:30.432Z,50.50
2022-08-23T07:33:32.255Z,50.50
2022-08-23T07:35:51.646Z,50.60
2022-08-23T07:37:55.762Z,50.40
2022-08-23T07:39:58.934Z,50.50
2022-08-23T07:42:01.654Z,50.40
2022-08-23T07:44:27.046Z,50.10
2022-08-23T07:46:30.584Z,49.90
2022-08-23T07:48:52.810Z,49.80
2022-08-23T07:51:01.224Z,49.70
2022-08-23T07:53:04.282Z,49.60
2022-08-23T07:55:06.993Z,49.60
2022-08-23T07:57:35.290Z,49.70
2022-08-23T07:59:48.495Z,49.60
2022-08-23T08:02:08.848Z,49.50
2022-08-23T08:04:12.515Z,49.60
2022-08-23T08:06:17.878Z,49.60
2022-08-23T08:08:19.835Z,49.60
2022-08-23T08:10:21.613Z,49.50
2022-08-23T08:12:24.199Z,49.40
2022-08-23T08:14:28.753Z,49.40
2022-08-23T08:16:35.026Z,49.30
2022-08-23T08:18:37.994Z,49.30
2022-08-23T08:20:58.526Z,49.30
2022-08-23T08:23:20.542Z,49.30
2022-08-23T08:25:48.198Z,49.20
2022-08-23T08:27:52.864Z,49.10
2022-08-23T08:29:55.275Z,49.10
2022-08-23T08:31:57.123Z,49.10
2022-08-23T08:33:59.072Z,49.10
2022-08-23T08:36:03.131Z,49.00
2022-08-23T08:38:06.008Z,49.10
2022-08-23T08:40:08.712Z,49.00
2022-08-23T08:42:11.353Z,48.90
2022-08-23T08:44:50.834Z,48.90
2022-08-23T08:46:57.741Z,48.90
2022-08-23T08:49:01.734Z,48.70
2022-08-23T08:51:05.920Z,48.70
2022-08-23T08:53:18.160Z,48.70
2022-08-23T08:55:55.504Z,48.70
2022-08-23T08:57:59.993Z,48.70
2022-08-23T09:00:05.720Z,48.70
2022-08-23T09:02:20.021Z,48.60
2022-08-23T09:04:34.716Z,48.60
2022-08-23T09:07:11.884Z,48.60
2022-08-23T09:09:19.670Z,48.50
2022-08-23T09:11:28.326Z,48.50
2022-08-23T09:13:30.178Z,48.40
2022-08-23T09:15:38.108Z,48.40
2022-08-23T09:17:56.976Z,48.30
2022-08-23T09:20:00.406Z,48.30
2022-08-23T09:22:06.527Z,48.30
2022-08-23T09:24:08.959Z,48.30
2022-08-23T09:26:30.552Z,48.30
2022-08-23T09:28:34.610Z,48.30
2022-08-23T09:30:51.353Z,48.20
2022-08-23T09:32:55.891Z,48.20
2022-08-23T09:35:08.621Z,48.10
2022-08-23T09:37:13.058Z,48.20
2022-08-23T09:39:30.694Z,48.20
2022-08-23T09:41:37.891Z,48.10
2022-08-23T09:43:44.568Z,48.10
2022-08-23T09:45:49.270Z,48.10
2022-08-23T09:47:53.447Z,48.10
2022-08-23T09:50:06.476Z,48.10
2022-08-23T09:52:36.792Z,48.00
2022-08-23T09:54:44.233Z,47.90
2022-08-23T09:56:57.526Z,47.90
2022-08-23T09:59:00.406Z,47.80
2022-08-23T10:01:16.631Z,47.70
2022-08-23T10:03:27.059Z,48.30
2022-08-23T10:05:39.391Z,47.50
2022-08-23T10:07:54.542Z,47.20
2022-08-23T10:10:15.654Z,47.30
2022-08-23T10:12:17.989Z,47.30
2022-08-23T10:14:21.009Z,47.20
2022-08-23T10:16:32.636Z,47.00
2022-08-23T10:18:41.685Z,47.10
2022-08-23T10:20:56.523Z,47.10
2022-08-23T10:22:58.178Z,46.80
2022-08-23T10:25:35.403Z,46.90
2022-08-23T10:28:10.117Z,46.00
2022-08-23T10:30:17.444Z,46.70
2022-08-23T10:32:39.013Z,46.40
2022-08-23T10:34:50.362Z,46.00
2022-08-23T10:36:59.615Z,46.50
2022-08-23T10:39:04.897Z,46.30
2022-08-23T10:41:14.183Z,46.10
2022-08-23T10:43:22.651Z,46.30
2022-08-23T10:45:25.888Z,46.10
2022-08-23T10:47:28.040Z,45.70
2022-08-23T10:49:30.462Z,45.90
2022-08-23T10:51:36.593Z,46.00
2022-08-23T10:53:46.667Z,45.60
2022-08-23T10:56:02.888Z,45.70
2022-08-23T10:58:11.403Z,45.30
2022-08-23T11:00:18.603Z,45.30
2022-08-23T11:02:34.495Z,45.40
2022-08-23T11:05:17.490Z,45.10
2022-08-23T11:07:27.875Z,44.90
2022-08-23T11:09:32.339Z,44.00
2022-08-23T11:11:36.942Z,45.00
2022-08-23T11:13:38.631Z,44.40
2022-08-23T11:15:45.314Z,44.60
2022-08-23T11:17:55.964Z,44.70
2022-08-23T11:19:59.406Z,44.20
2022-08-23T11:22:19.541Z,44.30
2022-08-23T11:24:29.431Z,44.70
2022-08-23T11:26:37.780Z,44.80
2022-08-23T11:28:46.479Z,44.20
2022-08-23T11:30:59.913Z,44.50
2022-08-23T11:33:20.756Z,44.00
2022-08-23T11:35:43.197Z,43.40
2022-08-23T11:37:56.893Z,43.70
2022-08-23T11:40:02.867Z,43.80
2022-08-23T11:42:10.394Z,43.80
2022-08-23T11:44:13.284Z,43.70
2022-08-23T11:46:27.427Z,43.60
2022-08-23T11:48:43.467Z,43.50
2022-08-23T11:50:57.755Z,43.40
2022-08-23T11:53:08.471Z,43.60
2022-08-23T11:55:19.278Z,43.30
2022-08-23T11:57:30.051Z,42.20
2022-08-23T11:59:51.566Z,42.70
2022-08-23T12:01:53.622Z,41.30
2022-08-23T12:03:58.582Z,42.50
2022-08-23T12:06:05.757Z,42.90
2022-08-23T12:08:14.022Z,42.50
2022-08-23T12:10:22.092Z,42.10
2022-08-23T12:12:25.847Z,41.20
2022-08-23T12:14:33.502Z,41.30
2022-08-23T12:16:37.002Z,41.60
2022-08-23T12:18:44.544Z,41.40
2022-08-23T12:20:49.584Z,41.20
2022-08-23T12:23:02.393Z,41.10
2022-08-23T12:25:06.530Z,41.10
2022-08-23T12:27:27.033Z,41.40
2022-08-23T12:29:46.338Z,41.40
2022-08-23T12:32:03.422Z,41.30
2022-08-23T12:34:22.948Z,41.30
2022-08-23T12:36:32.180Z,41.20
2022-08-23T12:38:33.834Z,41.00
2022-08-23T12:40:42.018Z,40.80
2022-08-23T12:42:44.428Z,40.80
2022-08-23T12:44:47.873Z,40.80
2022-08-23T12:46:50.731Z,40.60
2022-08-23T12:48:53.548Z,40.50
2022-08-23T12:51:00.277Z,40.40
2022-08-23T12:53:04.033Z,40.30
2022-08-23T12:55:16.841Z,40.00
2022-08-23T12:57:19.838Z,40.00
2022-08-23T12:59:41.241Z,40.20
2022-08-23T13:01:44.876Z,39.70
2022-08-23T13:03:48.157Z,38.50
2022-08-23T13:05:53.476Z,39.30
2022-08-23T13:07:55.224Z,38.20
2022-08-23T13:09:56.992Z,37.50
2022-08-23T13:11:58.988Z,38.60
2022-08-23T13:14:01.211Z,38.50
2022-08-23T13:16:26.630Z,38.60
2022-08-23T13:18:28.913Z,36.50
2022-08-23T13:20:31.216Z,36.90
2022-08-23T13:22:33.648Z,37.80
2022-08-23T13:24:39.045Z,37.80
2022-08-23T13:26:41.891Z,37.70
2022-08-23T13:28:59.839Z,37.60
2022-08-23T13:31:03.419Z,38.00
2022-08-23T13:33:08.209Z,37.50
2022-08-23T13:35:22.032Z,37.10
2022-08-23T13:37:28.193Z,37.10
2022-08-23T13:39:30.839Z,37.50
2022-08-23T13:41:41.342Z,37.20
2022-08-23T13:43:48.005Z,36.80
2022-08-23T13:45:54.696Z,37.00
2022-08-23T13:47:58.970Z,37.50
2022-08-23T13:50:01.852Z,36.90
2022-08-23T13:54:30.914Z,37.30
2022-08-23T13:56:53.409Z,36.40
2022-08-23T13:58:56.887Z,36.80
2022-08-23T14:01:00.530Z,37.00
2022-08-23T14:03:02.670Z,36.90
2022-08-23T14:05:06.142Z,37.00
2022-08-23T14:07:08.232Z,36.20
2022-08-23T14:09:09.908Z,37.30
2022-08-23T14:11:15.752Z,36.60
2022-08-23T14:13:18.021Z,36.20
2022-08-23T14:15:19.737Z,36.00
2022-08-23T14:17:21.473Z,35.70
2022-08-23T14:21:46.679Z,36.30
2022-08-23T14:23:48.352Z,35.90
2022-08-23T14:25:51.376Z,35.80
2022-08-23T14:27:53.032Z,35.60
2022-08-23T14:29:54.730Z,36.00
2022-08-23T14:31:58.062Z,35.90
2022-08-23T14:34:02.023Z,35.90
2022-08-23T14:36:04.736Z,35.90
2022-08-23T14:38:06.420Z,35.90
2022-08-23T14:40:09.368Z,35.80
2022-08-23T14:42:12.239Z,36.10
2022-08-23T14:44:16.241Z,36.20
2022-08-23T14:46:18.463Z,35.40
2022-08-23T14:48:20.452Z,35.30
2022-08-23T14:50:22.191Z,35.30
2022-08-23T14:52:23.879Z,34.60
2022-08-23T14:54:26.155Z,35.00
2022-08-23T14:56:27.823Z,34.90
2022-08-23T14:58:29.481Z,35.00
2022-08-23T15:00:32.413Z,34.10
2022-08-23T15:02:36.361Z,35.00
2022-08-23T15:04:38.552Z,34.90
2022-08-23T15:07:00.349Z,34.50
2022-08-23T15:09:03.904Z,34.70
2022-08-23T15:13:34.643Z,34.20
2022-08-23T15:15:38.206Z,34.30
2022-08-23T15:18:09.362Z,34.20
2022-08-23T15:20:11.024Z,34.20
2022-08-23T15:22:21.407Z,32.80
2022-08-23T15:24:23.803Z,32.90
2022-08-23T15:26:27.250Z,32.30
2022-08-23T15:28:29.541Z,32.80
2022-08-23T15:30:33.500Z,32.30
2022-08-23T15:32:35.251Z,33.00
2022-08-23T15:34:40.151Z,33.20
2022-08-23T15:36:47.966Z,33.10
2022-08-23T15:38:50.158Z,33.40
2022-08-23T15:40:53.281Z,32.70
2022-08-23T15:42:55.073Z,33.30
2022-08-23T15:44:56.758Z,32.70
2022-08-23T15:46:58.430Z,33.30
2022-08-23T15:49:10.947Z,33.60
2022-08-23T15:51:12.713Z,33.90
2022-08-23T15:53:14.620Z,33.60
2022-08-23T15:55:16.769Z,33.90
2022-08-23T15:57:21.528Z,34.00
2022-08-23T15:59:23.459Z,34.00
2022-08-23T16:01:25.615Z,34.00
2022-08-23T16:03:27.425Z,34.10
2022-08-23T16:05:29.121Z,34.10
2022-08-23T16:07:31.088Z,34.30
2022-08-23T16:09:33.811Z,34.00
2022-08-23T16:11:35.565Z,34.00
2022-08-23T16:13:40.719Z,33.90
2022-08-23T16:15:42.422Z,33.60
2022-08-23T16:17:44.117Z,33.60
2022-08-23T16:19:45.966Z,33.50
2022-08-23T16:21:47.657Z,33.30
2022-08-23T16:23:49.388Z,33.50
2022-08-23T16:25:51.087Z,33.30
2022-08-23T16:27:52.884Z,32.90
2022-08-23T16:29:54.523Z,33.00
2022-08-23T16:31:56.190Z,32.70
2022-08-23T16:33:58.955Z,32.90
2022-08-23T16:36:00.719Z,32.30
2022-08-23T16:38:02.457Z,32.50
2022-08-23T16:40:05.170Z,32.30
2022-08-23T16:42:07.003Z,32.20
2022-08-23T16:44:08.774Z,32.40
2022-08-23T16:46:10.677Z,32.70
2022-08-23T16:48:14.862Z,32.80
2022-08-23T16:50:16.750Z,32.70
2022-08-23T16:52:18.526Z,32.60
2022-08-23T16:54:22.402Z,32.10
2022-08-23T16:56:24.069Z,32.30
2022-08-23T16:58:26.003Z,32.60
2022-08-23T17:00:27.674Z,32.60
2022-08-23T17:02:30.716Z,32.60
2022-08-23T17:04:32.787Z,32.70
2022-08-23T17:06:34.459Z,32.70
2022-08-23T17:08:36.569Z,33.00
2022-08-23T17:10:38.509Z,33.30
2022-08-23T17:12:47.087Z,33.30
2022-08-23T17:14:50.721Z,33.50
2022-08-23T17:16:52.719Z,33.40
2022-08-23T17:18:57.177Z,33.40
2022-08-23T17:20:58.903Z,33.30
2022-08-23T17:23:00.878Z,33.50
2022-08-23T17:25:07.713Z,33.50
2022-08-23T17:27:09.416Z,33.50
2022-08-23T17:29:20.764Z,33.50
2022-08-23T17:31:23.046Z,33.90
2022-08-23T17:33:24.771Z,34.10
2022-08-23T17:35:27.984Z,34.10
2022-08-23T17:37:36.935Z,34.20
2022-08-23T17:39:38.618Z,34.20
2022-08-23T17:41:45.327Z,34.30
2022-08-23T17:43:47.790Z,34.30
2022-08-23T17:45:51.322Z,34.40
2022-08-23T17:47:53.307Z,34.50
2022-08-23T17:49:55.185Z,34.60
2022-08-23T17:51:56.924Z,34.60
2022-08-23T17:53:58.957Z,34.60
2022-08-23T17:56:01.741Z,34.80
2022-08-23T17:58:07.763Z,34.90
2022-08-23T18:00:10.679Z,35.00
2022-08-23T18:02:12.644Z,35.00
2022-08-23T18:04:14.461Z,35.00
2022-08-23T18:06:17.504Z,35.00
2022-08-23T18:08:19.373Z,35.00
2022-08-23T18:10:21.095Z,35.10
2022-08-23T18:12:23.303Z,35.20
2022-08-23T18:14:27.602Z,35.30
2022-08-23T18:16:34.514Z,35.50
2022-08-23T18:18:37.883Z,35.60
2022-08-23T18:20:39.588Z,35.70
2022-08-23T18:22:41.375Z,35.70
2022-08-23T18:24:43.091Z,36.50
2022-08-23T18:27:03.313Z,35.90
2022-08-23T18:29:06.129Z,36.10
2022-08-23T18:31:07.868Z,36.20
2022-08-23T18:33:12.463Z,37.00
2022-08-23T18:35:14.456Z,36.30
2022-08-23T18:37:17.164Z,36.40
2022-08-23T18:39:31.338Z,36.50
2022-08-23T18:41:33.904Z,36.50
2022-08-23T18:43:37.221Z,36.60
2022-08-23T18:45:39.485Z,36.50
2022-08-23T18:47:41.278Z,36.80
2022-08-23T18:49:43.261Z,36.90
2022-08-23T18:51:44.929Z,36.90
2022-08-23T18:53:46.707Z,36.80
2022-08-23T18:55:49.966Z,37.00
2022-08-23T18:57:51.664Z,36.90
2022-08-23T18:59:53.402Z,37.00
2022-08-23T19:01:55.913Z,37.00
2022-08-23T19:03:59.391Z,37.20
2022-08-23T19:06:01.106Z,37.20
2022-08-23T19:08:03.497Z,37.20
2022-08-23T19:10:05.510Z,37.20
2022-08-23T19:12:07.691Z,37.20
2022-08-23T19:14:10.640Z,37.30
2022-08-23T19:16:13.336Z,37.30
2022-08-23T19:18:16.030Z,37.40
2022-08-23T19:20:19.256Z,37.60
2022-08-23T19:22:21.009Z,37.60
2022-08-23T19:24:23.634Z,37.50
2022-08-23T19:26:31.566Z,37.50
2022-08-23T19:28:33.563Z,37.70
2022-08-23T19:30:35.583Z,37.80
2022-08-23T19:32:39.470Z,37.70
2022-08-23T19:34:42.060Z,38.00
2022-08-23T19:36:46.879Z,38.00
2022-08-23T19:38:49.237Z,37.80
2022-08-23T19:40:51.634Z,38.10
2022-08-23T19:42:53.392Z,38.10
2022-08-23T19:44:55.087Z,38.30
2022-08-23T19:46:57.023Z,38.30
2022-08-23T19:48:58.704Z,38.10
2022-08-23T19:51:00.752Z,38.40
2022-08-23T19:53:03.512Z,38.30
2022-08-23T19:55:07.213Z,38.30
2022-08-23T19:57:10.001Z,38.50
2022-08-23T19:59:13.688Z,38.50
2022-08-23T20:01:15.406Z,38.60
2022-08-23T20:03:17.136Z,38.60
2022-08-23T20:05:18.973Z,38.60
2022-08-23T20:07:20.682Z,38.60
2022-08-23T20:09:22.579Z,38.70
2022-08-23T20:11:24.590Z,38.60
2022-08-23T20:13:26.274Z,38.70
2022-08-23T20:15:29.131Z,39.00
2022-08-23T20:17:31.601Z,38.80
2022-08-23T20:19:35.112Z,39.00
2022-08-23T20:21:37.294Z,39.10
2022-08-23T20:23:57.582Z,39.10
2022-08-23T20:25:59.336Z,39.10
2022-08-23T20:28:05.022Z,39.80
2022-08-23T20:30:07.388Z,39.20
2022-08-23T20:32:10.458Z,39.10
2022-08-23T20:34:12.128Z,39.10
2022-08-23T20:36:15.835Z,39.30
2022-08-23T20:38:22.336Z,39.30
2022-08-23T20:40:34.474Z,39.40
2022-08-23T20:42:36.989Z,39.60
2022-08-23T20:44:38.676Z,39.50
2022-08-23T20:46:40.911Z,39.60
2022-08-23T20:48:42.730Z,39.60
2022-08-23T20:50:44.415Z,39.70
2022-08-23T20:52:46.932Z,39.80
2022-08-23T20:54:48.723Z,39.90
2022-08-23T20:56:51.459Z,39.80
2022-08-23T20:58:54.104Z,39.90
2022-08-23T21:00:55.895Z,40.10
2022-08-23T21:02:57.660Z,40.00
2022-08-23T21:04:59.396Z,40.20
2022-08-23T21:07:01.155Z,40.20
2022-08-23T21:09:03.770Z,40.10
2022-08-23T21:11:05.699Z,40.40
2022-08-23T21:13:10.499Z,40.40
2022-08-23T21:15:12.511Z,40.50
2022-08-23T21:17:14.353Z,40.50
2022-08-23T21:19:16.133Z,40.50
2022-08-23T21:21:21.551Z,40.50
2022-08-23T21:23:24.736Z,40.60
2022-08-23T21:25:26.431Z,40.60
2022-08-23T21:27:28.325Z,40.40
2022-08-23T21:29:30.268Z,40.60
2022-08-23T21:31:32.023Z,40.60
2022-08-23T21:33:39.316Z,40.70
2022-08-23T21:35:41.638Z,40.60
2022-08-23T21:37:43.475Z,40.90
2022-08-23T21:39:46.393Z,40.90
2022-08-23T21:41:48.803Z,41.00
2022-08-23T21:43:50.553Z,40.70
2022-08-23T21:45:52.505Z,40.80
2022-08-23T21:47:55.099Z,40.90
2022-08-23T21:49:56.811Z,41.00
2022-08-23T21:51:58.545Z,41.20
2022-08-23T21:54:00.227Z,41.00
2022-08-23T21:56:01.944Z,41.00
2022-08-23T21:58:03.698Z,41.30
2022-08-23T22:00:10.576Z,41.20
2022-08-23T22:02:14.434Z,41.10
2022-08-23T22:04:16.579Z,41.00
2022-08-23T22:06:19.501Z,41.30
2022-08-23T22:08:21.218Z,41.20
2022-08-23T22:10:23.303Z,41.40
2022-08-23T22:12:25.226Z,41.30
2022-08-23T22:14:31.466Z,41.30
2022-08-23T22:16:33.449Z,41.20
2022-08-23T22:18:35.716Z,41.40
2022-08-23T22:20:37.484Z,41.40
2022-08-23T22:22:39.173Z,41.50
2022-08-23T22:24:41.588Z,41.40
2022-08-23T22:26:43.741Z,41.70
2022-08-23T22:28:45.382Z,41.60
2022-08-23T22:30:47.141Z,41.50
2022-08-23T22:32:49.466Z,41.30
2022-08-23T22:34:51.225Z,41.40
2022-08-23T22:36:52.913Z,41.60
2022-08-23T22:38:55.171Z,41.40
2022-08-23T22:40:57.394Z,41.70
2022-08-23T22:42:59.061Z,41.60
2022-08-23T22:45:01.143Z,41.70
2022-08-23T22:47:02.994Z,41.40
2022-08-23T22:49:04.708Z,41.60
2022-08-23T22:51:09.526Z,41.50
2022-08-23T22:53:11.913Z,41.80
2022-08-23T22:55:13.686Z,41.90
2022-08-23T22:57:15.366Z,41.60
2022-08-23T22:59:18.109Z,41.30
2022-08-23T23:01:20.121Z,41.40
2022-08-23T23:03:22.717Z,41.70
2022-08-23T23:05:24.444Z,41.60
2022-08-23T23:07:44.816Z,41.70
2022-08-23T23:09:46.584Z,41.70
2022-08-23T23:11:48.719Z,42.00
2022-08-23T23:13:50.537Z,42.20
2022-08-23T23:15:52.329Z,42.10
2022-08-23T23:17:54.018Z,42.10
2022-08-23T23:20:14.151Z,41.90
2022-08-23T23:22:15.858Z,42.00
2022-08-23T23:24:19.478Z,42.00
2022-08-23T23:26:22.131Z,42.10
2022-08-23T23:28:24.141Z,42.10
2022-08-23T23:30:26.405Z,42.00
2022-08-23T23:32:28.215Z,42.00
2022-08-23T23:34:29.886Z,42.10
2022-08-23T23:36:32.140Z,42.10
2022-08-23T23:38:34.127Z,42.10
2022-08-23T23:40:35.874Z,42.40
2022-08-23T23:42:37.578Z,42.40
2022-08-23T23:44:39.320Z,42.50
2022-08-23T23:46:43.400Z,42.30
2022-08-23T23:48:47.967Z,42.40
2022-08-23T23:50:49.635Z,42.40
2022-08-23T23:52:51.635Z,42.50
2022-08-23T23:54:53.284Z,42.80
2022-08-23T23:56:55.565Z,42.70
2022-08-23T23:58:58.483Z,42.90
